St. Roch: Past 24 Hour Conditions

 

Clyde Airport

11:00 AM EST 24 November 2014
This table is a summary of hourly weather conditions for the past 24 hours.
Date / Time
(EST)
Wind(knots) Conditions Visibility(km) Pressure(kPa) Air tempC) Relative humidity(%) Dew pointC) Wind Chill
24 November 2014
11:00 NW 27 Drifting Snow 32 98.9 -12 83 -15 -25
10:00 NW 29 Drifting Snow 32 98.9 -12 82 -15 -25
9:00 NW 29 gust 34 Drifting Snow 13 98.9 -13 84 -15 -26
8:00 NW 34 gust 39 Light Snow 1 98.9 -13 88 -14 -27
7:00 NW 36 gust 41 Snow 0.8 98.8 -13 87 -14 -27
6:00 NW 36 gust 43 Snow 0.6 98.8 -12 88 -13 -25
5:00 NW 39 gust 44 Snow 0.6 98.8 -11 89 -13 -25
4:00 NW 37 gust 44 Snow 0.6 98.7 -11 88 -13 -25
3:00 NW 35 gust 40 Snow 0.8 98.6 -11 88 -13 -25
2:00 NW 31 gust 37 Light Snow 1 98.7 -11 89 -12 -24
1:00 NW 35 gust 44 Heavy Snow 0.4 98.7 -11 90 -12 -24
0:00 NW 37 gust 43 Heavy Snow 0.2 98.7 -10 91 -12 -24
23 November 2014
23:00 NW 36 gust 43 Heavy Snow 0.4 98.7 -10 90 -12 -24
22:00 NW 35 gust 43 Heavy Snow 0.4 98.7 -10 91 -11 -23
21:00 NW 37 gust 43 Heavy Snow 0.4 98.8 -10 91 -11 -23
20:00 NW 33 gust 43 Snow 0.6 98.8 -10 91 -11 -23
19:00 NW 34 gust 40 Snow 0.6 98.9 -10 91 -11 -23
18:00 NW 33 gust 40 Snow 0.6 98.9 -11 90 -12 -24
17:00 NW 34 gust 41 Snow 0.6 99.0 -11 89 -13 -25
16:00 NW 27 gust 33 Light Snow 1 99.0 -12 89 -14 -25
15:00 NW 31 gust 37 Light Snow 0.2 99.1 -12 89 -14 -25
14:00 NW 26 Light Snow 0.4 99.1 -12 89 -13 -24
13:00 NW 26 gust 32 Light Snow 0.6 99.2 -12 88 -14 -25
12:00 NW 27 Light Snow 0.8 99.2 -13 87 -14 -25
11:00 NW 25 Light Snow 2 99.3 -12 88 -14 -25
 
Map of Arctic - Eastern Arctic marine weather areas Baker Lake Airport Chesterfield Inlet Airport Coral Harbour Airport Gjoa Haven Airport Kugaaruk Airport Rankin Inlet Airport Shepherd Bay Airport Whale Cove Airport Arctic Bay Brevoort Island Qikiqtarjuaq Airport Cape Dorset Airport Cape Dyer Cape Hooper Clyde Airport Grise Fiord Airport Hall Beach Airport Igloolik Airport Iqaluit Airport Longstaff Bluff Pangnirtung Airport Pond Inlet Airport Repulse Bay Airport Resolute Airport Resolution Island Rowley Island Airport Taloyoak Airport Wager Bay Akulivik Airport Ivujivik Airport Puvirnituq Airport Kangiqsujuaq Airport Kangirsuk Airport Quaqtaq Airport Tasiujaq Airport Cape Kakkiviak Cape Kiglapait Nain Airport Saglek Cape Mercy Kimmirut Airport Aupaluk Airport Salluit Airport Kangiqsualujjuaq Airport Fort Ross
Legend: buoyBuoy land stationLand Station